createdAt,value
2022-09-05T00:00:12.353Z,24.31
2022-09-05T00:02:48.745Z,24.29
2022-09-05T00:05:41.279Z,24.25
2022-09-05T00:08:39.884Z,24.23
2022-09-05T00:11:43.176Z,24.19
2022-09-05T00:15:14.320Z,24.18
2022-09-05T00:17:35.621Z,24.14
2022-09-05T00:24:26.249Z,24.12
2022-09-05T00:24:37.724Z,24.08
2022-09-05T00:26:56.781Z,24.05
2022-09-05T00:31:08.780Z,24.02
2022-09-05T00:33:17.506Z,23.99
2022-09-05T00:36:02.250Z,23.98
2022-09-05T00:38:36.530Z,23.96
2022-09-05T00:41:08.378Z,23.94
2022-09-05T00:43:37.631Z,23.93
2022-09-05T00:46:15.824Z,23.92
2022-09-05T00:48:49.201Z,23.91
2022-09-05T00:51:34.791Z,23.89
2022-09-05T00:54:01.721Z,23.86
2022-09-05T00:56:53.404Z,23.85
2022-09-05T00:59:58.472Z,23.82
2022-09-05T01:02:51.991Z,23.79
2022-09-05T01:05:53.190Z,23.77
2022-09-05T01:08:45.128Z,23.75
2022-09-05T01:11:12.058Z,23.74
2022-09-05T01:14:16.325Z,23.74
2022-09-05T01:17:04.605Z,23.73
2022-09-05T01:19:56.152Z,23.74
2022-09-05T01:22:48.233Z,23.72
2022-09-05T01:25:31.438Z,23.73
2022-09-05T01:29:13.421Z,23.75
2022-09-05T01:31:07.446Z,23.75
2022-09-05T01:33:54.379Z,23.76
2022-09-05T01:36:42.386Z,23.75
2022-09-05T01:39:53.598Z,23.74
2022-09-05T01:42:32.617Z,23.71
2022-09-05T01:45:04.452Z,23.69
2022-09-05T01:47:45.421Z,23.66
2022-09-05T01:50:17.184Z,23.63
2022-09-05T01:53:08.458Z,23.62
2022-09-05T01:56:18.215Z,23.59
2022-09-05T01:58:55.416Z,23.54
2022-09-05T02:04:35.620Z,23.51
2022-09-05T02:07:30.048Z,23.46
2022-09-05T02:10:24.487Z,23.42
2022-09-05T02:13:03.917Z,23.39
2022-09-05T02:15:40.487Z,23.36
2022-09-05T02:18:14.843Z,23.35
2022-09-05T02:20:41.475Z,23.32
2022-09-05T02:23:24.770Z,23.29
2022-09-05T02:26:18.738Z,23.27
2022-09-05T02:28:56.211Z,23.25
2022-09-05T02:31:37.361Z,23.23
2022-09-05T02:34:09.834Z,23.21
2022-09-05T02:36:54.766Z,23.18
2022-09-05T02:45:03.804Z,23.15
2022-09-05T02:45:18.371Z,23.11
2022-09-05T02:45:54.129Z,23.10
2022-09-05T02:48:31.960Z,23.07
2022-09-05T02:57:24.636Z,23.05
2022-09-05T02:57:32.760Z,23.04
2022-09-05T02:58:06.930Z,23.01
2022-09-05T03:00:35.325Z,23.00
2022-09-05T03:03:30.775Z,22.97
2022-09-05T03:06:34.451Z,22.94
2022-09-05T03:09:17.202Z,22.91
2022-09-05T03:12:29.179Z,22.88
2022-09-05T03:15:22.249Z,22.86
2022-09-05T03:18:19.979Z,22.82
2022-09-05T03:20:54.332Z,22.81
2022-09-05T03:24:04.192Z,22.80
2022-09-05T03:27:01.163Z,22.77
2022-09-05T03:30:05.640Z,22.75
2022-09-05T03:32:57.100Z,22.72
2022-09-05T03:35:54.756Z,22.69
2022-09-05T03:39:02.676Z,22.67
2022-09-05T03:41:40.541Z,22.65
2022-09-05T03:44:37.961Z,22.66
2022-09-05T03:47:36.650Z,22.64
2022-09-05T03:57:05.493Z,22.62
2022-09-05T03:57:22.671Z,22.59
2022-09-05T03:57:27.026Z,22.54
2022-09-05T04:00:06.187Z,22.52
2022-09-05T04:07:03.583Z,22.49
2022-09-05T04:08:15.465Z,22.48
2022-09-05T04:08:36.966Z,22.47
2022-09-05T04:11:30.497Z,22.46
2022-09-05T04:14:02.884Z,22.46
2022-09-05T04:16:32.602Z,22.43
2022-09-05T04:19:20.257Z,22.42
2022-09-05T04:21:51.907Z,22.41
2022-09-05T04:24:53.034Z,22.39
2022-09-05T04:27:40.485Z,22.37
2022-09-05T04:30:39.920Z,22.36
2022-09-05T04:33:35.956Z,22.36
2022-09-05T04:36:33.513Z,22.33
2022-09-05T04:39:19.872Z,22.31
2022-09-05T04:41:51.897Z,22.29
2022-09-05T04:44:40.634Z,22.27
2022-09-05T04:47:18.931Z,22.26
2022-09-05T04:49:54.520Z,22.24
2022-09-05T04:52:39.423Z,22.24
2022-09-05T04:55:10.949Z,22.22
2022-09-05T04:57:46.478Z,22.22
2022-09-05T05:05:59.244Z,22.25
2022-09-05T05:06:17.543Z,22.24
2022-09-05T05:06:45.049Z,22.26
2022-09-05T05:09:18.984Z,22.25
2022-09-05T05:18:03.037Z,22.26
2022-09-05T05:18:06.170Z,22.27
2022-09-05T05:18:14.521Z,22.25
2022-09-05T05:20:49.552Z,22.28
2022-09-05T05:23:18.637Z,22.26
2022-09-05T05:25:54.503Z,22.24
2022-09-05T05:28:50.517Z,22.22
2022-09-05T05:31:20.712Z,22.22
2022-09-05T05:33:49.897Z,22.23
2022-09-05T05:36:22.542Z,22.27
2022-09-05T05:39:00.947Z,22.29
2022-09-05T05:41:37.536Z,22.35
2022-09-05T05:44:13.291Z,22.37
2022-09-05T05:46:42.497Z,22.39
2022-09-05T05:49:24.739Z,22.47
2022-09-05T05:52:33.555Z,22.57
2022-09-05T05:55:50.882Z,22.70
2022-09-05T05:58:15.856Z,22.84
2022-09-05T06:01:02.936Z,22.93
2022-09-05T06:03:57.485Z,22.96
2022-09-05T06:06:37.574Z,22.94
2022-09-05T06:14:47.950Z,22.92
2022-09-05T06:15:01.922Z,22.89
2022-09-05T06:16:09.803Z,22.89
2022-09-05T06:19:14.105Z,22.87
2022-09-05T06:22:14.962Z,22.90
2022-09-05T06:25:17.602Z,23.08
2022-09-05T06:28:19.130Z,23.24
2022-09-05T06:31:28.970Z,23.40
2022-09-05T06:34:07.909Z,23.60
2022-09-05T06:36:58.832Z,23.69
2022-09-05T06:39:50.885Z,23.88
2022-09-05T06:42:56.222Z,24.06
2022-09-05T06:45:46.654Z,24.18
2022-09-05T06:48:21.484Z,24.23
2022-09-05T06:51:37.731Z,24.33
2022-09-05T06:54:32.204Z,24.38
2022-09-05T06:57:30.578Z,24.39
2022-09-05T07:00:22.708Z,24.37
2022-09-05T07:03:27.480Z,24.31
2022-09-05T07:06:24.270Z,24.35
2022-09-05T07:09:16.039Z,24.56
2022-09-05T07:12:03.828Z,24.66
2022-09-05T07:14:34.471Z,24.62
2022-09-05T07:17:07.106Z,24.55
2022-09-05T07:19:54.867Z,24.51
2022-09-05T07:22:50.707Z,24.49
2022-09-05T07:25:20.199Z,24.55
2022-09-05T07:28:29.223Z,24.70
2022-09-05T07:30:50.560Z,24.79
2022-09-05T07:33:20.649Z,24.87
2022-09-05T07:35:47.603Z,25.14
2022-09-05T07:38:26.696Z,25.67
2022-09-05T07:41:26.657Z,26.40
2022-09-05T07:43:57.885Z,27.03
2022-09-05T07:46:32.327Z,27.30
2022-09-05T07:49:02.839Z,27.25
2022-09-05T07:56:56.490Z,27.16
2022-09-05T07:57:07.929Z,27.33
2022-09-05T07:57:30.931Z,27.67
2022-09-05T08:00:26.124Z,27.99
2022-09-05T08:02:55.050Z,28.35
2022-09-05T08:05:34.666Z,28.63
2022-09-05T08:08:06.515Z,28.83
2022-09-05T08:11:22.552Z,28.84
2022-09-05T08:13:46.236Z,28.78
2022-09-05T08:16:16.192Z,28.62
2022-09-05T08:18:50.780Z,28.46
2022-09-05T08:21:45.495Z,28.27
2022-09-05T08:24:21.082Z,28.14
2022-09-05T08:26:52.782Z,28.10
2022-09-05T08:29:33.483Z,28.08
2022-09-05T08:32:09.656Z,28.08
2022-09-05T08:34:56.380Z,28.04
2022-09-05T08:37:25.784Z,27.98
2022-09-05T08:39:59.105Z,28.00
2022-09-05T08:42:44.007Z,28.07
2022-09-05T08:46:42.192Z,28.12
2022-09-05T08:48:40.018Z,28.15
2022-09-05T08:51:22.348Z,28.12
2022-09-05T08:53:54.999Z,28.07
2022-09-05T08:56:30.880Z,28.10
2022-09-05T08:59:28.020Z,28.18
2022-09-05T09:02:44.686Z,28.24
2022-09-05T09:05:07.529Z,28.32
2022-09-05T09:07:51.047Z,28.45
2022-09-05T09:10:35.738Z,28.57
2022-09-05T09:13:14.800Z,28.66
2022-09-05T09:15:47.046Z,28.70
2022-09-05T09:18:18.764Z,28.72
2022-09-05T09:20:52.828Z,28.77
2022-09-05T09:23:44.797Z,28.85
2022-09-05T09:26:15.846Z,28.94
2022-09-05T09:28:49.646Z,29.02
2022-09-05T09:31:22.457Z,29.10
2022-09-05T09:33:59.974Z,29.20
2022-09-05T09:36:53.528Z,29.26
2022-09-05T09:39:48.287Z,29.25
2022-09-05T09:42:45.456Z,29.24
2022-09-05T09:45:30.043Z,29.24
2022-09-05T09:48:34.587Z,29.29
2022-09-05T09:51:30.753Z,29.33
2022-09-05T09:54:20.202Z,29.35
2022-09-05T09:57:11.727Z,29.38
2022-09-05T10:00:04.595Z,29.38
2022-09-05T10:04:31.170Z,29.38
2022-09-05T10:10:34.719Z,29.41
2022-09-05T10:10:53.557Z,29.44
2022-09-05T10:12:33.158Z,29.52
2022-09-05T10:15:31.389Z,29.58
2022-09-05T10:18:24.272Z,29.65
2022-09-05T10:21:17.852Z,29.74
2022-09-05T10:23:53.690Z,29.77
2022-09-05T10:26:58.112Z,29.79
2022-09-05T10:29:55.105Z,29.82
2022-09-05T10:35:04.510Z,29.84
2022-09-05T10:35:31.554Z,29.88
2022-09-05T10:38:20.481Z,29.94
2022-09-05T10:41:14.663Z,30.02
2022-09-05T10:43:53.209Z,30.15
2022-09-05T10:46:51.293Z,30.20
2022-09-05T10:49:24.503Z,30.20
2022-09-05T10:52:19.287Z,30.23
2022-09-05T10:55:14.261Z,30.27
2022-09-05T10:58:16.468Z,30.30
2022-09-05T11:02:28.440Z,30.31
2022-09-05T11:04:52.600Z,30.31
2022-09-05T11:07:43.768Z,30.31
2022-09-05T11:10:20.215Z,30.31
2022-09-05T11:13:21.531Z,30.32
2022-09-05T11:16:19.423Z,30.33
2022-09-05T11:18:56.375Z,30.31
2022-09-05T11:21:30.469Z,30.30
2022-09-05T11:24:27.132Z,30.26
2022-09-05T11:27:36.657Z,30.27
2022-09-05T11:30:30.569Z,30.30
2022-09-05T11:39:48.206Z,30.33
2022-09-05T11:40:00.459Z,30.34
2022-09-05T11:40:09.970Z,30.36
2022-09-05T11:42:46.020Z,30.39
2022-09-05T11:45:38.584Z,30.40
2022-09-05T11:48:53.024Z,30.42
2022-09-05T11:52:08.469Z,30.43
2022-09-05T11:55:20.685Z,30.47
2022-09-05T11:58:44.962Z,30.49
2022-09-05T12:01:36.857Z,30.55
2022-09-05T12:07:52.066Z,30.60
2022-09-05T12:10:47.446Z,30.63
2022-09-05T12:13:21.678Z,30.66
2022-09-05T12:16:07.233Z,30.70
2022-09-05T12:18:43.709Z,30.74
2022-09-05T12:21:38.111Z,30.78
2022-09-05T12:25:15.499Z,30.80
2022-09-05T12:27:41.954Z,30.80
2022-09-05T12:30:06.049Z,30.83
2022-09-05T12:34:46.668Z,30.85
2022-09-05T12:36:12.902Z,30.89
2022-09-05T12:41:33.092Z,30.94
2022-09-05T12:41:40.879Z,30.57
2022-09-05T12:41:43.039Z,31.01
2022-09-05T12:44:38.931Z,31.09
2022-09-05T12:47:16.601Z,31.16
2022-09-05T12:49:55.381Z,31.25
2022-09-05T12:52:33.868Z,31.34
2022-09-05T12:55:09.251Z,31.41
2022-09-05T13:02:56.547Z,31.47
2022-09-05T13:03:13.135Z,31.55
2022-09-05T13:03:31.671Z,31.63
2022-09-05T13:06:05.199Z,31.69
2022-09-05T13:08:47.244Z,31.75
2022-09-05T13:14:53.612Z,31.88
2022-09-05T13:14:54.646Z,31.81
2022-09-05T13:17:15.723Z,31.97
2022-09-05T13:19:47.385Z,32.04
2022-09-05T13:22:15.490Z,32.11
2022-09-05T13:24:46.651Z,32.16
2022-09-05T13:27:16.345Z,32.18
2022-09-05T13:31:40.707Z,32.21
2022-09-05T13:37:54.693Z,32.20
2022-09-05T13:38:11.510Z,32.19
2022-09-05T13:38:55.838Z,32.22
2022-09-05T13:41:28.436Z,32.28
2022-09-05T13:44:24.912Z,32.36
2022-09-05T13:47:22.025Z,32.44
2022-09-05T13:50:13.537Z,32.49
2022-09-05T13:52:44.593Z,32.52
2022-09-05T13:55:29.718Z,32.54
2022-09-05T13:58:21.458Z,32.53
2022-09-05T14:01:01.049Z,32.54
2022-09-05T14:03:40.140Z,32.54
2022-09-05T14:06:48.665Z,32.58
2022-09-05T14:09:46.435Z,32.60
2022-09-05T14:12:38.064Z,32.62
2022-09-05T14:15:13.827Z,32.65
2022-09-05T14:17:55.658Z,32.69
2022-09-05T14:20:44.442Z,32.70
2022-09-05T14:23:17.719Z,32.69
2022-09-05T14:25:52.436Z,32.69
2022-09-05T14:28:27.330Z,32.71
2022-09-05T14:37:40.950Z,32.71
2022-09-05T14:37:43.109Z,32.70
2022-09-05T14:37:55.080Z,32.73
2022-09-05T14:40:43.459Z,32.67
2022-09-05T14:43:48.050Z,32.66
2022-09-05T14:46:38.922Z,32.68
2022-09-05T14:49:18.489Z,32.66
2022-09-05T14:51:47.089Z,32.61
2022-09-05T15:00:38.640Z,32.46
2022-09-05T15:02:42.986Z,32.39
2022-09-05T15:03:03.745Z,32.32
2022-09-05T15:05:31.437Z,32.25
2022-09-05T15:08:03.960Z,32.18
2022-09-05T15:12:16.181Z,32.14
2022-09-05T15:14:03.654Z,32.09
2022-09-05T15:16:45.622Z,32.07
2022-09-05T15:20:06.151Z,32.10
2022-09-05T15:22:43.639Z,32.17
2022-09-05T15:25:23.700Z,32.19
2022-09-05T15:27:51.159Z,32.18
2022-09-05T15:30:35.191Z,32.15
2022-09-05T15:33:14.530Z,32.07
2022-09-05T15:35:43.768Z,32.03
2022-09-05T15:38:28.800Z,31.97
2022-09-05T15:41:23.815Z,31.91
2022-09-05T15:44:01.853Z,31.84
2022-09-05T15:46:46.181Z,31.80
2022-09-05T15:49:25.571Z,31.77
2022-09-05T15:51:55.701Z,31.73
2022-09-05T15:54:37.344Z,31.72
2022-09-05T15:57:08.812Z,31.67
2022-09-05T15:59:47.190Z,31.66
2022-09-05T16:02:25.895Z,31.63
2022-09-05T16:07:42.973Z,31.59
2022-09-05T16:10:35.548Z,31.57
2022-09-05T16:14:39.738Z,31.48
2022-09-05T16:23:15.046Z,31.40
2022-09-05T16:23:17.310Z,31.44
2022-09-05T16:23:41.768Z,31.33
2022-09-05T16:26:26.104Z,31.26
2022-09-05T16:29:06.394Z,31.24
2022-09-05T16:31:47.105Z,31.20
2022-09-05T16:34:45.491Z,31.19
2022-09-05T16:37:14.021Z,31.16
2022-09-05T16:39:47.248Z,31.15
2022-09-05T16:42:30.822Z,31.15
2022-09-05T16:45:18.738Z,31.14
2022-09-05T16:48:06.673Z,31.11
2022-09-05T16:51:15.477Z,31.09
2022-09-05T16:53:58.346Z,31.04
2022-09-05T16:56:33.898Z,30.97
2022-09-05T16:59:10.410Z,30.92
2022-09-05T17:02:06.129Z,30.89
2022-09-05T17:05:03.172Z,30.83
2022-09-05T17:07:42.087Z,30.76
2022-09-05T17:10:17.024Z,30.71
2022-09-05T17:12:44.105Z,30.67
2022-09-05T17:15:14.819Z,30.62
2022-09-05T17:18:20.699Z,30.55
2022-09-05T17:20:53.502Z,30.50
2022-09-05T17:29:19.469Z,30.47
2022-09-05T17:29:34.486Z,30.43
2022-09-05T17:32:48.223Z,30.35
2022-09-05T17:35:48.532Z,30.33
2022-09-05T17:38:41.168Z,30.29
2022-09-05T17:41:52.972Z,30.25
2022-09-05T17:44:28.761Z,30.22
2022-09-05T17:47:07.043Z,30.20
2022-09-05T17:49:42.935Z,30.16
2022-09-05T17:52:18.665Z,30.12
2022-09-05T17:54:49.478Z,30.09
2022-09-05T17:57:29.143Z,30.06
2022-09-05T18:00:00.856Z,30.02
2022-09-05T18:02:53.722Z,29.97
2022-09-05T18:05:54.494Z,29.91
2022-09-05T18:08:44.892Z,29.85
2022-09-05T18:11:17.993Z,29.82
2022-09-05T18:14:02.660Z,29.77
2022-09-05T18:16:43.720Z,29.74
2022-09-05T18:19:36.561Z,29.71
2022-09-05T18:22:19.437Z,29.67
2022-09-05T18:24:51.538Z,29.64
2022-09-05T18:27:39.367Z,29.61
2022-09-05T18:30:12.040Z,29.56
2022-09-05T18:32:45.091Z,29.52
2022-09-05T18:35:15.593Z,29.50
2022-09-05T18:38:04.430Z,29.46
2022-09-05T18:41:02.014Z,29.42
2022-09-05T18:43:37.973Z,29.37
2022-09-05T18:46:25.649Z,29.32
2022-09-05T18:49:18.002Z,29.27
2022-09-05T18:52:03.683Z,29.20
2022-09-05T18:54:33.533Z,29.17
2022-09-05T18:57:26.150Z,29.14
2022-09-05T18:59:51.849Z,29.10
2022-09-05T19:02:51.502Z,29.06
2022-09-05T19:05:37.445Z,29.00
2022-09-05T19:08:28.742Z,28.93
2022-09-05T19:10:58.895Z,28.88
2022-09-05T19:13:34.131Z,28.84
2022-09-05T19:16:42.465Z,28.81
2022-09-05T19:19:16.398Z,28.76
2022-09-05T19:22:32.008Z,28.72
2022-09-05T19:24:45.217Z,28.66
2022-09-05T19:28:29.218Z,28.64
2022-09-05T19:36:59.987Z,28.61
2022-09-05T19:37:03.612Z,28.59
2022-09-05T19:37:05.765Z,28.57
2022-09-05T19:38:23.212Z,28.53
2022-09-05T19:46:41.619Z,28.49
2022-09-05T19:47:42.806Z,28.41
2022-09-05T19:47:55.889Z,28.44
2022-09-05T19:49:13.004Z,28.35
2022-09-05T19:51:43.672Z,28.32
2022-09-05T19:54:28.277Z,28.28
2022-09-05T19:57:00.737Z,28.23
2022-09-05T19:59:34.274Z,28.20
2022-09-05T20:02:02.290Z,28.18
2022-09-05T20:04:36.801Z,28.13
2022-09-05T20:07:15.389Z,28.12
2022-09-05T20:09:44.308Z,28.07
2022-09-05T20:12:29.950Z,28.03
2022-09-05T20:14:57.779Z,27.97
2022-09-05T20:17:30.993Z,27.94
2022-09-05T20:20:11.228Z,27.91
2022-09-05T20:22:49.074Z,27.89
2022-09-05T20:25:39.815Z,27.87
2022-09-05T20:28:10.653Z,27.85
2022-09-05T20:30:42.348Z,27.83
2022-09-05T20:33:27.575Z,27.80
2022-09-05T20:39:42.367Z,27.77
2022-09-05T20:43:15.705Z,27.72
2022-09-05T20:43:32.089Z,27.75
2022-09-05T20:44:58.805Z,27.73
2022-09-05T20:49:44.858Z,27.71
2022-09-05T20:54:15.604Z,27.71
2022-09-05T20:54:31.801Z,27.69
2022-09-05T20:56:30.736Z,27.67
2022-09-05T20:59:00.870Z,27.64
2022-09-05T21:01:32.213Z,27.63
2022-09-05T21:04:04.300Z,27.60
2022-09-05T21:06:41.378Z,27.59
2022-09-05T21:09:08.053Z,27.57
2022-09-05T21:11:34.791Z,27.55
2022-09-05T21:14:04.311Z,27.53
2022-09-05T21:16:35.647Z,27.51
2022-09-05T21:19:02.551Z,27.49
2022-09-05T21:21:31.492Z,27.47
2022-09-05T21:24:16.279Z,27.43
2022-09-05T21:26:46.573Z,27.39
2022-09-05T21:29:16.506Z,27.37
2022-09-05T21:31:46.295Z,27.33
2022-09-05T21:34:22.943Z,27.31
2022-09-05T21:37:06.371Z,27.27
2022-09-05T21:39:59.894Z,27.22
2022-09-05T21:44:25.405Z,27.21
2022-09-05T21:47:40.314Z,27.16
2022-09-05T21:48:06.476Z,27.15
2022-09-05T21:50:39.105Z,27.13
2022-09-05T21:53:46.947Z,27.11
2022-09-05T21:59:26.557Z,27.04
2022-09-05T21:59:33.302Z,27.01
2022-09-05T22:01:51.770Z,26.98
2022-09-05T22:04:18.911Z,26.94
2022-09-05T22:06:48.145Z,26.89
2022-09-05T22:09:19.697Z,26.85
2022-09-05T22:11:50.265Z,26.81
2022-09-05T22:14:19.374Z,26.78
2022-09-05T22:16:47.408Z,26.80
2022-09-05T22:19:22.302Z,26.78
2022-09-05T22:21:50.541Z,26.78
2022-09-05T22:24:17.699Z,26.78
2022-09-05T22:27:11.767Z,26.77
2022-09-05T22:29:35.363Z,26.74
2022-09-05T22:32:02.190Z,26.72
2022-09-05T22:34:28.981Z,26.71
2022-09-05T22:36:56.059Z,26.68
2022-09-05T22:39:36.525Z,26.64
2022-09-05T22:42:10.101Z,26.61
2022-09-05T22:44:41.166Z,26.58
2022-09-05T22:47:11.285Z,26.54
2022-09-05T22:49:38.055Z,26.54
2022-09-05T22:52:06.270Z,26.55
2022-09-05T22:54:33.758Z,26.55
2022-09-05T22:57:00.537Z,26.54
2022-09-05T22:59:27.313Z,26.54
2022-09-05T23:01:54.114Z,26.54
2022-09-05T23:04:20.968Z,26.53
2022-09-05T23:06:47.825Z,26.52
2022-09-05T23:09:14.571Z,26.50
2022-09-05T23:11:41.387Z,26.47
2022-09-05T23:14:08.136Z,26.44
2022-09-05T23:16:34.858Z,26.42
2022-09-05T23:19:01.627Z,26.38
2022-09-05T23:21:28.363Z,26.38
2022-09-05T23:23:55.099Z,26.36
2022-09-05T23:26:22.285Z,26.35
2022-09-05T23:28:49.042Z,26.32
2022-09-05T23:31:15.899Z,26.29
2022-09-05T23:33:42.724Z,26.26
2022-09-05T23:36:12.527Z,26.24
2022-09-05T23:38:41.324Z,26.21
2022-09-05T23:41:14.172Z,26.18
2022-09-05T23:43:40.945Z,26.14
2022-09-05T23:46:08.146Z,26.11
2022-09-05T23:48:35.144Z,26.09
2022-09-05T23:51:06.878Z,26.05
2022-09-05T23:53:33.822Z,26.02
2022-09-05T23:56:04.454Z,25.98
2022-09-05T23:58:31.888Z,25.97
